createdAt,value
2018-07-16T00:00:22.641Z,64.79
2018-07-16T00:02:51.876Z,65.50
2018-07-16T00:05:20.614Z,66.15
2018-07-16T00:07:49.864Z,66.13
2018-07-16T00:10:18.892Z,66.24
2018-07-16T00:12:47.709Z,66.84
2018-07-16T00:15:16.582Z,66.51
2018-07-16T00:17:46.618Z,67.01
2018-07-16T00:20:15.397Z,67.15
2018-07-16T00:22:44.163Z,67.40
2018-07-16T00:25:12.867Z,66.86
2018-07-16T00:27:41.706Z,67.23
2018-07-16T00:30:10.543Z,67.40
2018-07-16T00:32:39.328Z,67.59
2018-07-16T00:35:08.754Z,67.87
2018-07-16T00:37:37.401Z,68.62
2018-07-16T00:40:06.202Z,68.14
2018-07-16T00:42:35.404Z,69.00
2018-07-16T00:45:04.399Z,68.81
2018-07-16T00:47:33.589Z,68.35
2018-07-16T00:50:02.276Z,68.71
2018-07-16T00:52:31.014Z,69.76
2018-07-16T00:54:59.725Z,69.95
2018-07-16T00:57:29.075Z,69.66
2018-07-16T00:59:57.841Z,70.17
2018-07-16T01:02:27.036Z,69.68
2018-07-16T01:04:55.960Z,69.35
2018-07-16T01:07:25.303Z,69.33
2018-07-16T01:09:54.389Z,69.53
2018-07-16T01:12:23.084Z,70.16
2018-07-16T01:14:52.014Z,69.78
2018-07-16T01:17:23.258Z,69.99
2018-07-16T01:19:51.969Z,69.73
2018-07-16T01:22:20.676Z,69.48
2018-07-16T01:24:49.450Z,70.19
2018-07-16T01:27:18.269Z,71.21
2018-07-16T01:29:46.935Z,71.11
2018-07-16T01:32:15.896Z,70.85
2018-07-16T01:34:46.236Z,71.62
2018-07-16T01:37:15.333Z,71.52
2018-07-16T01:39:45.845Z,70.59
2018-07-16T01:42:14.532Z,71.39
2018-07-16T01:44:43.416Z,71.09
2018-07-16T01:47:12.226Z,71.10
2018-07-16T01:49:40.914Z,71.49
2018-07-16T01:52:09.891Z,71.37
2018-07-16T01:54:38.673Z,71.06
2018-07-16T01:57:07.810Z,71.28
2018-07-16T01:59:36.513Z,71.50
2018-07-16T02:02:05.388Z,71.79
2018-07-16T02:04:34.057Z,71.60
2018-07-16T02:07:02.682Z,72.38
2018-07-16T02:09:31.575Z,72.15
2018-07-16T02:12:00.835Z,72.26
2018-07-16T02:14:29.455Z,72.62
2018-07-16T02:16:58.077Z,72.03
2018-07-16T02:19:26.706Z,72.27
2018-07-16T02:21:55.361Z,71.68
2018-07-16T02:24:23.999Z,72.03
2018-07-16T02:26:52.670Z,72.20
2018-07-16T02:29:21.363Z,71.65
2018-07-16T02:31:49.950Z,71.80
2018-07-16T02:34:18.546Z,71.91
2018-07-16T02:36:47.220Z,72.87
2018-07-16T02:39:15.954Z,72.86
2018-07-16T02:41:45.282Z,72.76
2018-07-16T02:44:13.976Z,72.28
2018-07-16T02:46:42.863Z,72.98
2018-07-16T02:49:11.496Z,72.44
2018-07-16T02:51:40.154Z,72.82
2018-07-16T02:54:08.833Z,72.74
2018-07-16T02:56:37.492Z,72.31
2018-07-16T02:59:06.534Z,72.33
2018-07-16T03:01:35.236Z,72.78
2018-07-16T03:04:03.849Z,72.98
2018-07-16T03:06:33.282Z,72.28
2018-07-16T03:09:01.911Z,72.71
2018-07-16T03:11:30.592Z,72.76
2018-07-16T03:13:59.349Z,73.71
2018-07-16T03:16:28.686Z,73.53
2018-07-16T03:18:57.381Z,73.87
2018-07-16T03:21:26.466Z,74.22
2018-07-16T03:23:55.099Z,74.09
2018-07-16T03:26:23.756Z,73.85
2018-07-16T03:28:52.447Z,73.71
2018-07-16T03:31:21.131Z,73.50
2018-07-16T03:33:49.821Z,73.62
2018-07-16T03:36:18.819Z,74.40
2018-07-16T03:38:47.746Z,73.33
2018-07-16T03:41:17.113Z,74.22
2018-07-16T03:43:45.760Z,74.21
2018-07-16T03:46:14.419Z,73.91
2018-07-16T03:48:43.294Z,74.04
2018-07-16T03:51:11.924Z,74.84
2018-07-16T03:53:40.950Z,74.24
2018-07-16T03:56:09.647Z,74.12
2018-07-16T03:58:38.356Z,74.65
2018-07-16T04:01:07.286Z,73.98
2018-07-16T04:03:35.997Z,74.18
2018-07-16T04:06:05.354Z,74.48
2018-07-16T04:08:34.063Z,73.45
2018-07-16T04:11:02.778Z,73.99
2018-07-16T04:13:31.576Z,74.18
2018-07-16T04:16:00.613Z,74.14
2018-07-16T04:18:29.600Z,73.53
2018-07-16T04:20:58.242Z,74.07
2018-07-16T04:23:27.072Z,73.57
2018-07-16T04:25:55.724Z,73.32
2018-07-16T04:28:24.372Z,73.77
2018-07-16T04:30:53.111Z,72.87
2018-07-16T04:33:21.750Z,73.41
2018-07-16T04:35:50.694Z,72.81
2018-07-16T04:38:19.330Z,72.83
2018-07-16T04:40:48.370Z,71.84
2018-07-16T04:43:17.346Z,72.53
2018-07-16T04:45:46.037Z,70.78
2018-07-16T04:48:14.694Z,72.02
2018-07-16T04:50:43.367Z,71.72
2018-07-16T04:53:12.256Z,71.22
2018-07-16T04:55:40.895Z,71.38
2018-07-16T04:58:09.862Z,71.85
2018-07-16T05:00:38.551Z,70.79
2018-07-16T05:03:07.430Z,70.77
2018-07-16T05:05:36.075Z,70.91
2018-07-16T05:08:04.737Z,71.46
2018-07-16T05:10:33.496Z,71.02
2018-07-16T05:13:02.211Z,71.49
2018-07-16T05:15:31.156Z,69.97
2018-07-16T05:18:00.188Z,69.96
2018-07-16T05:20:28.853Z,69.11
2018-07-16T05:22:57.523Z,69.87
2018-07-16T05:25:26.715Z,69.86
2018-07-16T05:27:55.808Z,68.93
2018-07-16T05:30:24.870Z,69.02
2018-07-16T05:32:53.903Z,68.67
2018-07-16T05:35:23.259Z,68.60
2018-07-16T05:37:51.931Z,69.29
2018-07-16T05:40:20.892Z,69.12
2018-07-16T05:42:50.044Z,66.33
2018-07-16T05:45:20.960Z,67.87
2018-07-16T05:47:50.053Z,67.55
2018-07-16T05:50:18.928Z,67.77
2018-07-16T05:52:47.560Z,68.58
2018-07-16T05:55:16.158Z,68.00
2018-07-16T05:57:45.438Z,67.57
2018-07-16T06:00:14.055Z,67.16
2018-07-16T06:02:42.971Z,66.54
2018-07-16T06:05:11.676Z,66.53
2018-07-16T06:07:40.855Z,66.41
2018-07-16T06:10:09.547Z,65.24
2018-07-16T06:12:38.191Z,65.47
2018-07-16T06:15:06.914Z,65.17
2018-07-16T06:17:36.523Z,65.82
2018-07-16T06:20:06.161Z,65.51
2018-07-16T06:22:34.800Z,65.52
2018-07-16T06:25:03.963Z,66.87
2018-07-16T06:27:32.909Z,65.72
2018-07-16T06:30:01.771Z,66.57
2018-07-16T06:32:31.236Z,66.01
2018-07-16T06:35:00.071Z,64.49
2018-07-16T06:37:29.731Z,65.92
2018-07-16T06:39:58.770Z,64.80
2018-07-16T06:42:27.342Z,65.16
2018-07-16T06:44:56.087Z,64.53
2018-07-16T06:47:24.771Z,64.46
2018-07-16T06:49:53.413Z,63.12
2018-07-16T06:52:22.140Z,62.63
2018-07-16T06:54:51.335Z,60.93
2018-07-16T06:57:20.252Z,60.94
2018-07-16T06:59:48.949Z,63.09
2018-07-16T07:02:18.139Z,63.42
2018-07-16T07:04:46.726Z,60.24
2018-07-16T07:07:15.374Z,59.28
2018-07-16T07:09:44.111Z,58.81
2018-07-16T07:12:12.835Z,56.32
2018-07-16T07:14:41.483Z,57.37
2018-07-16T07:17:10.453Z,54.27
2018-07-16T07:19:39.162Z,58.72
2018-07-16T07:22:08.229Z,55.05
2018-07-16T07:24:37.532Z,54.83
2018-07-16T07:27:06.646Z,56.46
2018-07-16T07:29:35.625Z,51.28
2018-07-16T07:32:04.411Z,51.27
2018-07-16T07:34:33.344Z,51.43
2018-07-16T07:37:02.036Z,53.12
2018-07-16T07:39:30.720Z,53.50
2018-07-16T07:41:59.374Z,55.29
2018-07-16T07:44:28.027Z,54.77
2018-07-16T07:46:57.083Z,50.74
2018-07-16T07:49:25.775Z,51.62
2018-07-16T07:51:54.500Z,50.98
2018-07-16T07:54:23.417Z,52.88
2018-07-16T07:56:52.042Z,52.75
2018-07-16T07:59:20.720Z,52.12
2018-07-16T08:01:49.536Z,49.93
2018-07-16T08:04:19.407Z,48.16
2018-07-16T08:06:53.266Z,50.66
2018-07-16T08:09:21.940Z,53.87
2018-07-16T08:11:50.652Z,54.10
2018-07-16T08:14:19.381Z,47.75
2018-07-16T08:16:48.230Z,50.51
2018-07-16T08:19:17.281Z,50.41
2018-07-16T08:21:46.245Z,48.48
2018-07-16T08:24:16.037Z,46.78
2018-07-16T08:26:45.107Z,49.13
2018-07-16T08:29:14.130Z,48.61
2018-07-16T08:31:43.082Z,46.44
2018-07-16T08:34:12.546Z,47.93
2018-07-16T08:36:41.636Z,45.19
2018-07-16T08:39:10.642Z,40.63
2018-07-16T08:41:39.591Z,43.84
2018-07-16T08:44:08.334Z,43.52
2018-07-16T08:46:37.077Z,38.92
2018-07-16T08:49:05.872Z,42.08
2018-07-16T08:51:34.573Z,42.51
2018-07-16T08:54:03.318Z,43.88
2018-07-16T08:56:32.383Z,41.44
2018-07-16T08:59:01.436Z,42.30
2018-07-16T09:01:30.138Z,41.13
2018-07-16T09:03:59.236Z,38.05
2018-07-16T09:06:27.993Z,40.33
2018-07-16T09:08:56.774Z,38.13
2018-07-16T09:11:25.423Z,40.24
2018-07-16T09:13:54.606Z,40.05
2018-07-16T09:16:23.310Z,35.81
2018-07-16T09:18:52.379Z,35.21
2018-07-16T09:21:21.033Z,38.73
2018-07-16T09:23:50.022Z,36.87
2018-07-16T09:26:18.654Z,37.79
2018-07-16T09:28:47.456Z,37.17
2018-07-16T09:31:16.546Z,36.92
2018-07-16T09:33:45.255Z,37.12
2018-07-16T09:36:13.978Z,36.70
2018-07-16T09:38:42.721Z,39.18
2018-07-16T09:41:11.709Z,37.69
2018-07-16T09:43:40.364Z,37.89
2018-07-16T09:46:09.079Z,37.60
2018-07-16T09:48:38.158Z,38.93
2018-07-16T09:51:07.010Z,41.22
2018-07-16T09:53:35.765Z,42.18
2018-07-16T09:56:04.556Z,41.36
2018-07-16T09:58:33.639Z,43.23
2018-07-16T10:01:07.575Z,44.39
2018-07-16T10:03:36.246Z,43.28
2018-07-16T10:06:05.119Z,43.00
2018-07-16T10:08:33.933Z,44.59
2018-07-16T10:11:03.218Z,44.26
2018-07-16T10:13:31.946Z,44.24
2018-07-16T10:16:00.892Z,45.65
2018-07-16T10:18:29.999Z,45.66
2018-07-16T10:20:58.759Z,43.26
2018-07-16T10:23:27.457Z,44.83
2018-07-16T10:25:56.341Z,43.41
2018-07-16T10:28:30.280Z,42.84
2018-07-16T10:30:58.987Z,44.68
2018-07-16T10:33:27.658Z,41.46
2018-07-16T10:35:56.666Z,41.77
2018-07-16T10:38:25.913Z,43.13
2018-07-16T10:40:54.690Z,41.04
2018-07-16T10:43:23.523Z,44.21
2018-07-16T10:45:52.193Z,43.27
2018-07-16T10:48:20.802Z,43.04
2018-07-16T10:50:49.519Z,41.37
2018-07-16T10:53:18.254Z,40.32
2018-07-16T10:55:46.987Z,38.10
2018-07-16T10:58:15.730Z,37.03
2018-07-16T11:00:44.747Z,37.05
2018-07-16T11:03:13.479Z,36.40
2018-07-16T11:05:42.325Z,36.21
2018-07-16T11:08:11.125Z,36.81
2018-07-16T11:10:40.424Z,36.70
2018-07-16T11:13:09.172Z,37.91
2018-07-16T11:15:37.921Z,36.36
2018-07-16T11:18:06.735Z,38.49
2018-07-16T11:20:35.430Z,37.21
2018-07-16T11:23:04.247Z,38.64
2018-07-16T11:25:32.991Z,37.76
2018-07-16T11:28:01.674Z,38.57
2018-07-16T11:30:30.356Z,39.44
2018-07-16T11:32:59.252Z,39.07
2018-07-16T11:35:27.959Z,35.87
2018-07-16T11:37:56.721Z,36.42
2018-07-16T11:40:25.409Z,37.31
2018-07-16T11:42:54.181Z,35.09
2018-07-16T11:45:23.161Z,31.69
2018-07-16T11:47:51.917Z,33.79
2018-07-16T11:50:20.741Z,29.91
2018-07-16T11:52:49.503Z,31.79
2018-07-16T11:55:18.583Z,31.24
2018-07-16T11:57:47.558Z,30.42
2018-07-16T12:00:16.268Z,30.53
2018-07-16T12:02:45.169Z,29.22
2018-07-16T12:05:14.229Z,30.67
2018-07-16T12:07:43.183Z,29.11
2018-07-16T12:10:12.082Z,28.55
2018-07-16T12:12:42.098Z,26.13
2018-07-16T12:15:11.599Z,21.35
2018-07-16T12:17:41.703Z,20.58
2018-07-16T12:20:10.424Z,20.05
2018-07-16T12:22:39.251Z,19.81
2018-07-16T12:25:07.984Z,18.76
2018-07-16T12:27:36.777Z,17.06
2018-07-16T12:30:05.569Z,16.02
2018-07-16T12:32:34.294Z,16.56
2018-07-16T12:35:03.060Z,17.12
2018-07-16T12:37:32.463Z,17.91
2018-07-16T12:40:01.273Z,15.80
2018-07-16T12:42:29.969Z,16.23
2018-07-16T12:44:58.903Z,16.44
2018-07-16T12:47:27.604Z,17.77
2018-07-16T12:49:56.271Z,17.28
2018-07-16T12:52:24.917Z,17.72
2018-07-16T12:54:53.884Z,15.45
2018-07-16T12:57:22.668Z,18.04
2018-07-16T12:59:51.380Z,17.58
2018-07-16T13:02:20.699Z,14.50
2018-07-16T13:04:49.714Z,16.37
2018-07-16T13:07:18.638Z,14.63
2018-07-16T13:09:47.403Z,20.01
2018-07-16T13:12:16.094Z,12.98
2018-07-16T13:14:44.699Z,16.41
2018-07-16T13:17:14.229Z,18.70
2018-07-16T13:19:43.314Z,14.00
2018-07-16T13:22:12.572Z,15.04
2018-07-16T13:24:41.254Z,15.46
2018-07-16T13:27:10.310Z,13.99
2018-07-16T13:29:39.017Z,13.25
2018-07-16T13:32:07.711Z,16.03
2018-07-16T13:34:36.363Z,11.01
2018-07-16T13:37:05.110Z,18.82
2018-07-16T13:39:34.063Z,14.84
2018-07-16T13:42:02.757Z,19.06
2018-07-16T13:44:31.456Z,25.05
2018-07-16T13:47:00.181Z,21.48
2018-07-16T13:49:29.026Z,24.04
2018-07-16T13:51:57.824Z,22.08
2018-07-16T13:54:26.476Z,20.72
2018-07-16T13:56:55.146Z,21.39
2018-07-16T13:59:23.850Z,19.02
2018-07-16T14:01:53.226Z,17.18
2018-07-16T14:04:22.245Z,17.02
2018-07-16T14:06:51.456Z,18.17
2018-07-16T14:09:20.099Z,17.93
2018-07-16T14:11:48.756Z,18.99
2018-07-16T14:14:17.450Z,21.23
2018-07-16T14:16:46.128Z,21.50
2018-07-16T14:19:14.894Z,22.55
2018-07-16T14:21:43.918Z,19.78
2018-07-16T14:24:12.673Z,20.05
2018-07-16T14:26:41.285Z,22.32
2018-07-16T14:29:10.040Z,22.63
2018-07-16T14:31:39.024Z,22.00
2018-07-16T14:34:07.853Z,21.44
2018-07-16T14:36:37.020Z,21.08
2018-07-16T14:39:06.676Z,20.74
2018-07-16T14:41:35.491Z,20.42
2018-07-16T14:44:04.336Z,20.93
2018-07-16T14:46:33.040Z,21.76
2018-07-16T14:49:02.297Z,23.31
2018-07-16T14:51:31.069Z,24.76
2018-07-16T14:54:00.043Z,24.07
2018-07-16T14:56:29.167Z,24.59
2018-07-16T14:58:57.921Z,26.76
2018-07-16T15:01:26.640Z,27.39
2018-07-16T15:03:55.573Z,26.82
2018-07-16T15:06:24.260Z,27.80
2018-07-16T15:08:53.324Z,27.67
2018-07-16T15:11:22.034Z,27.70
2018-07-16T15:13:51.274Z,28.33
2018-07-16T15:16:20.290Z,28.19
2018-07-16T15:18:48.932Z,28.71
2018-07-16T15:21:17.855Z,29.17
2018-07-16T15:23:46.981Z,29.88
2018-07-16T15:26:15.690Z,31.11
2018-07-16T15:28:44.405Z,30.92
2018-07-16T15:31:13.027Z,32.03
2018-07-16T15:33:41.742Z,32.09
2018-07-16T15:36:10.747Z,32.84
2018-07-16T15:38:39.689Z,33.25
2018-07-16T15:41:08.707Z,32.94
2018-07-16T15:43:38.659Z,33.48
2018-07-16T15:46:07.642Z,33.26
2018-07-16T15:48:36.411Z,33.01
2018-07-16T15:51:05.203Z,33.27
2018-07-16T15:53:34.680Z,33.96
2018-07-16T15:56:03.710Z,34.68
2018-07-16T15:58:32.799Z,35.37
2018-07-16T16:01:01.800Z,35.24
2018-07-16T16:03:30.418Z,35.41
2018-07-16T16:05:59.408Z,34.62
2018-07-16T16:08:31.089Z,34.91
2018-07-16T16:11:00.092Z,34.05
2018-07-16T16:13:28.742Z,34.84
2018-07-16T16:15:57.750Z,34.43
2018-07-16T16:18:26.525Z,34.86
2018-07-16T16:20:55.171Z,33.99
2018-07-16T16:23:23.896Z,34.39
2018-07-16T16:25:52.580Z,34.74
2018-07-16T16:28:21.816Z,34.11
2018-07-16T16:30:50.779Z,35.39
2018-07-16T16:33:19.519Z,35.61
2018-07-16T16:35:48.556Z,35.12
2018-07-16T16:38:17.730Z,34.91
2018-07-16T16:40:47.328Z,35.38
2018-07-16T16:43:16.402Z,35.74
2018-07-16T16:45:45.182Z,36.50
2018-07-16T16:48:15.517Z,36.68
2018-07-16T16:50:44.316Z,37.45
2018-07-16T16:53:13.569Z,37.83
2018-07-16T16:55:42.302Z,37.47
2018-07-16T16:58:11.739Z,37.48
2018-07-16T17:00:41.165Z,38.16
2018-07-16T17:03:09.912Z,38.11
2018-07-16T17:05:38.942Z,38.59
2018-07-16T17:08:08.279Z,38.38
2018-07-16T17:10:37.165Z,38.85
2018-07-16T17:13:12.906Z,38.01
2018-07-16T17:15:45.160Z,37.31
2018-07-16T17:18:14.634Z,36.56
2018-07-16T17:20:49.827Z,36.85
2018-07-16T17:23:18.868Z,37.58
2018-07-16T17:25:48.850Z,36.76
2018-07-16T17:28:17.527Z,37.47
2018-07-16T17:30:46.345Z,37.63
2018-07-16T17:33:15.041Z,37.37
2018-07-16T17:35:47.982Z,37.83
2018-07-16T17:38:16.683Z,38.93
2018-07-16T17:40:46.803Z,39.30
2018-07-16T17:43:17.322Z,39.55
2018-07-16T17:45:48.482Z,39.78
2018-07-16T17:48:19.088Z,39.55
2018-07-16T17:50:52.506Z,39.48
2018-07-16T17:53:21.384Z,39.73
2018-07-16T17:55:53.792Z,40.22
2018-07-16T17:58:22.910Z,39.83
2018-07-16T18:00:54.190Z,39.68
2018-07-16T18:03:27.166Z,40.25
2018-07-16T18:05:56.594Z,39.33
2018-07-16T18:08:25.510Z,39.56
2018-07-16T18:10:54.439Z,39.71
2018-07-16T18:13:23.669Z,39.69
2018-07-16T18:15:52.611Z,40.03
2018-07-16T18:18:21.845Z,39.36
2018-07-16T18:20:50.659Z,39.98
2018-07-16T18:23:19.344Z,40.29
2018-07-16T18:25:48.226Z,40.05
2018-07-16T18:28:17.199Z,40.28
2018-07-16T18:30:45.932Z,40.07
2018-07-16T18:33:15.276Z,40.33
2018-07-16T18:35:43.953Z,40.21
2018-07-16T18:38:13.124Z,40.27
2018-07-16T18:40:42.189Z,40.34
2018-07-16T18:43:10.947Z,40.20
2018-07-16T18:45:39.635Z,40.54
2018-07-16T18:48:08.966Z,40.44
2018-07-16T18:50:37.616Z,40.62
2018-07-16T18:53:06.924Z,41.07
2018-07-16T18:55:35.582Z,41.32
2018-07-16T18:58:04.686Z,41.24
2018-07-16T19:00:33.596Z,41.58
2018-07-16T19:03:02.353Z,40.91
2018-07-16T19:05:31.264Z,41.14
2018-07-16T19:08:00.382Z,41.26
2018-07-16T19:10:29.093Z,41.31
2018-07-16T19:12:58.180Z,42.30
2018-07-16T19:15:28.521Z,42.36
2018-07-16T19:17:58.842Z,41.93
2018-07-16T19:20:27.842Z,42.60
2018-07-16T19:22:57.338Z,41.90
2018-07-16T19:25:26.220Z,41.99
2018-07-16T19:27:55.321Z,42.50
2018-07-16T19:30:24.634Z,41.93
2018-07-16T19:32:55.571Z,42.88
2018-07-16T19:35:25.782Z,46.88
2018-07-16T19:37:56.541Z,47.57
2018-07-16T19:40:25.328Z,47.87
2018-07-16T19:42:54.340Z,48.07
2018-07-16T19:45:23.087Z,48.40
2018-07-16T19:47:52.606Z,48.72
2018-07-16T19:50:21.704Z,49.32
2018-07-16T19:52:50.685Z,49.75
2018-07-16T19:55:19.668Z,49.07
2018-07-16T19:57:48.479Z,48.95
2018-07-16T20:00:17.303Z,49.09
2018-07-16T20:02:46.033Z,50.11
2018-07-16T20:05:15.049Z,49.91
2018-07-16T20:07:43.865Z,49.50
2018-07-16T20:10:13.118Z,49.76
2018-07-16T20:12:41.967Z,50.52
2018-07-16T20:15:10.953Z,50.90
2018-07-16T20:17:41.191Z,50.59
2018-07-16T20:20:10.015Z,50.58
2018-07-16T20:22:40.782Z,50.61
2018-07-16T20:25:10.281Z,50.75
2018-07-16T20:27:39.197Z,51.25
2018-07-16T20:30:10.609Z,50.89
2018-07-16T20:32:39.418Z,50.78
2018-07-16T20:35:08.930Z,50.83
2018-07-16T20:37:37.855Z,50.40
2018-07-16T20:40:06.542Z,51.29
2018-07-16T20:42:35.264Z,50.49
2018-07-16T20:45:04.017Z,51.13
2018-07-16T20:47:34.123Z,50.55
2018-07-16T20:50:02.859Z,50.58
2018-07-16T20:52:32.054Z,51.08
2018-07-16T20:55:01.865Z,50.90
2018-07-16T20:57:30.889Z,50.96
2018-07-16T20:59:59.750Z,51.80
2018-07-16T21:02:28.424Z,52.21
2018-07-16T21:04:57.237Z,51.98
2018-07-16T21:07:25.911Z,52.21
2018-07-16T21:09:54.621Z,51.93
2018-07-16T21:12:23.971Z,52.40
2018-07-16T21:14:52.706Z,52.23
2018-07-16T21:17:21.888Z,52.75
2018-07-16T21:19:50.583Z,52.45
2018-07-16T21:22:19.408Z,53.35
2018-07-16T21:24:48.507Z,53.27
2018-07-16T21:27:17.149Z,53.59
2018-07-16T21:29:46.376Z,54.02
2018-07-16T21:32:15.122Z,53.52
2018-07-16T21:34:44.895Z,54.27
2018-07-16T21:37:13.558Z,53.93
2018-07-16T21:39:42.793Z,53.83
2018-07-16T21:42:11.744Z,54.18
2018-07-16T21:44:41.088Z,54.68
2018-07-16T21:47:10.428Z,54.90
2018-07-16T21:49:39.215Z,54.68
2018-07-16T21:52:07.958Z,55.05
2018-07-16T21:54:36.697Z,55.52
2018-07-16T21:57:05.481Z,55.16
2018-07-16T21:59:34.849Z,55.30
2018-07-16T22:02:03.653Z,55.85
2018-07-16T22:04:32.766Z,55.61
2018-07-16T22:07:01.480Z,55.80
2018-07-16T22:09:30.253Z,56.38
2018-07-16T22:11:59.151Z,56.04
2018-07-16T22:14:28.704Z,56.45
2018-07-16T22:16:57.891Z,57.02
2018-07-16T22:19:26.529Z,56.48
2018-07-16T22:21:55.782Z,57.70
2018-07-16T22:24:24.544Z,57.91
2018-07-16T22:26:53.568Z,58.31
2018-07-16T22:29:22.860Z,57.51
2018-07-16T22:31:51.541Z,57.67
2018-07-16T22:34:20.464Z,58.21
2018-07-16T22:36:55.729Z,58.26
2018-07-16T22:39:24.554Z,58.02
2018-07-16T22:41:53.157Z,57.68
2018-07-16T22:44:21.786Z,58.24
2018-07-16T22:46:50.383Z,58.68
2018-07-16T22:49:19.177Z,57.90
2018-07-16T22:51:48.103Z,59.00
2018-07-16T22:54:16.758Z,58.87
2018-07-16T22:56:45.664Z,59.39
2018-07-16T22:59:14.296Z,58.60
2018-07-16T23:01:43.369Z,58.34
2018-07-16T23:04:12.624Z,59.05
2018-07-16T23:06:41.561Z,58.87
2018-07-16T23:09:10.782Z,60.00
2018-07-16T23:11:39.464Z,60.24
2018-07-16T23:14:08.109Z,59.70
2018-07-16T23:16:37.017Z,60.23
2018-07-16T23:19:06.398Z,59.75
2018-07-16T23:21:35.108Z,59.87
2018-07-16T23:24:03.857Z,60.54
2018-07-16T23:26:33.299Z,60.00
2018-07-16T23:29:01.878Z,60.88
2018-07-16T23:31:30.779Z,61.09
2018-07-16T23:33:59.482Z,60.91
2018-07-16T23:36:28.418Z,60.25
2018-07-16T23:38:57.400Z,60.78
2018-07-16T23:41:26.674Z,60.21
2018-07-16T23:43:55.637Z,60.16
2018-07-16T23:46:24.552Z,61.26
2018-07-16T23:48:53.314Z,60.95
2018-07-16T23:51:21.961Z,61.77
2018-07-16T23:53:50.581Z,61.65
2018-07-16T23:56:19.248Z,61.13
2018-07-16T23:58:47.879Z,61.57
